sensor_id;sensor_type;location;lat;lon;timestamp;temperature;humidity
36594;DHT22;22603;47.900;8.146;2022-12-24T00:01:35;7.80;99.90
36594;DHT22;22603;47.900;8.146;2022-12-24T00:04:22;7.80;99.90
36594;DHT22;22603;47.900;8.146;2022-12-24T00:07:09;7.80;99.90
36594;DHT22;22603;47.900;8.146;2022-12-24T00:09:58;7.70;99.90
36594;DHT22;22603;47.900;8.146;2022-12-24T00:12:45;7.50;99.90
36594;DHT22;22603;47.900;8.146;2022-12-24T00:15:32;7.40;99.90
36594;DHT22;22603;47.900;8.146;2022-12-24T00:18:19;7.40;99.90
36594;DHT22;22603;47.900;8.146;2022-12-24T00:21:06;7.30;99.90
36594;DHT22;22603;47.900;8.146;2022-12-24T00:23:53;7.30;99.90
36594;DHT22;22603;47.900;8.146;2022-12-24T00:26:42;7.30;99.90
36594;DHT22;22603;47.900;8.146;2022-12-24T00:29:29;7.20;99.90
36594;DHT22;22603;47.900;8.146;2022-12-24T00:32:16;7.20;99.90
36594;DHT22;22603;47.900;8.146;2022-12-24T00:35:03;7.30;99.90
36594;DHT22;22603;47.900;8.146;2022-12-24T00:37:50;7.20;99.90
36594;DHT22;22603;47.900;8.146;2022-12-24T00:40:38;7.10;99.90
36594;DHT22;22603;47.900;8.146;2022-12-24T00:43:26;7.10;99.90
36594;DHT22;22603;47.900;8.146;2022-12-24T00:46:13;7.10;99.90
36594;DHT22;22603;47.900;8.146;2022-12-24T00:49:01;7.10;99.90
36594;DHT22;22603;47.900;8.146;2022-12-24T00:51:49;7.10;99.90
36594;DHT22;22603;47.900;8.146;2022-12-24T00:54:36;7.30;99.90
36594;DHT22;22603;47.900;8.146;2022-12-24T00:57:23;7.50;99.90
36594;DHT22;22603;47.900;8.146;2022-12-24T01:00:11;7.40;99.90
36594;DHT22;22603;47.900;8.146;2022-12-24T01:03:00;7.30;99.90
36594;DHT22;22603;47.900;8.146;2022-12-24T01:05:47;7.40;99.90
36594;DHT22;22603;47.900;8.146;2022-12-24T01:08:36;7.40;99.90
36594;DHT22;22603;47.900;8.146;2022-12-24T01:11:23;7.50;99.90
36594;DHT22;22603;47.900;8.146;2022-12-24T01:14:11;7.40;99.90
36594;DHT22;22603;47.900;8.146;2022-12-24T01:16:59;7.40;99.90
36594;DHT22;22603;47.900;8.146;2022-12-24T01:19:46;7.40;99.90
36594;DHT22;22603;47.900;8.146;2022-12-24T01:22:33;7.40;99.90
36594;DHT22;22603;47.900;8.146;2022-12-24T01:25:20;7.30;99.90
36594;DHT22;22603;47.900;8.146;2022-12-24T01:28:08;7.40;99.90
36594;DHT22;22603;47.900;8.146;2022-12-24T01:30:55;7.40;99.90
36594;DHT22;22603;47.900;8.146;2022-12-24T01:33:44;7.50;99.90
36594;DHT22;22603;47.900;8.146;2022-12-24T01:36:31;7.60;99.90
36594;DHT22;22603;47.900;8.146;2022-12-24T01:39:19;7.70;99.90
36594;DHT22;22603;47.900;8.146;2022-12-24T01:42:17;7.80;99.90
36594;DHT22;22603;47.900;8.146;2022-12-24T01:45:42;7.70;99.90
36594;DHT22;22603;47.900;8.146;2022-12-24T01:48:36;7.80;99.90
36594;DHT22;22603;47.900;8.146;2022-12-24T01:51:29;7.70;99.90
36594;DHT22;22603;47.900;8.146;2022-12-24T01:54:21;7.70;99.90
36594;DHT22;22603;47.900;8.146;2022-12-24T01:57:18;7.70;99.90
36594;DHT22;22603;47.900;8.146;2022-12-24T02:00:09;7.70;99.90
36594;DHT22;22603;47.900;8.146;2022-12-24T02:02:58;7.70;99.90
36594;DHT22;22603;47.900;8.146;2022-12-24T02:05:47;7.60;99.90
36594;DHT22;22603;47.900;8.146;2022-12-24T02:08:37;7.70;99.90
36594;DHT22;22603;47.900;8.146;2022-12-24T02:11:29;7.70;99.90
36594;DHT22;22603;47.900;8.146;2022-12-24T02:14:17;7.70;99.90
36594;DHT22;22603;47.900;8.146;2022-12-24T02:17:16;7.70;99.90
36594;DHT22;22603;47.900;8.146;2022-12-24T02:20:45;7.70;99.90
36594;DHT22;22603;47.900;8.146;2022-12-24T02:23:59;7.70;99.90
36594;DHT22;22603;47.900;8.146;2022-12-24T02:27:15;7.60;99.90
36594;DHT22;22603;47.900;8.146;2022-12-24T02:30:08;7.60;99.90
36594;DHT22;22603;47.900;8.146;2022-12-24T02:33:07;7.60;99.90
36594;DHT22;22603;47.900;8.146;2022-12-24T02:35:58;7.50;99.90
36594;DHT22;22603;47.900;8.146;2022-12-24T02:38:51;7.60;99.90
36594;DHT22;22603;47.900;8.146;2022-12-24T02:41:42;7.50;99.90
36594;DHT22;22603;47.900;8.146;2022-12-24T02:44:51;7.50;99.90
36594;DHT22;22603;47.900;8.146;2022-12-24T02:47:43;7.40;99.90
36594;DHT22;22603;47.900;8.146;2022-12-24T02:50:30;7.40;99.90
36594;DHT22;22603;47.900;8.146;2022-12-24T02:53:18;7.40;99.90
36594;DHT22;22603;47.900;8.146;2022-12-24T02:59:35;7.50;99.90
36594;DHT22;22603;47.900;8.146;2022-12-24T03:02:30;7.40;99.90
36594;DHT22;22603;47.900;8.146;2022-12-24T03:05:28;7.30;99.90
36594;DHT22;22603;47.900;8.146;2022-12-24T03:08:27;7.30;99.90
36594;DHT22;22603;47.900;8.146;2022-12-24T03:11:20;7.30;99.90
36594;DHT22;22603;47.900;8.146;2022-12-24T03:14:07;7.10;99.90
36594;DHT22;22603;47.900;8.146;2022-12-24T03:16:56;7.10;99.90
36594;DHT22;22603;47.900;8.146;2022-12-24T03:19:44;7.00;99.90
36594;DHT22;22603;47.900;8.146;2022-12-24T03:22:34;7.00;99.90
36594;DHT22;22603;47.900;8.146;2022-12-24T03:25:23;6.90;99.90
36594;DHT22;22603;47.900;8.146;2022-12-24T03:28:14;6.90;99.90
36594;DHT22;22603;47.900;8.146;2022-12-24T03:31:03;6.90;99.90
36594;DHT22;22603;47.900;8.146;2022-12-24T03:33:51;6.80;99.90
36594;DHT22;22603;47.900;8.146;2022-12-24T03:36:39;6.90;99.90
36594;DHT22;22603;47.900;8.146;2022-12-24T03:39:27;6.90;99.90
36594;DHT22;22603;47.900;8.146;2022-12-24T03:42:14;6.80;99.90
36594;DHT22;22603;47.900;8.146;2022-12-24T03:45:01;6.80;99.90
36594;DHT22;22603;47.900;8.146;2022-12-24T03:47:48;6.90;99.90
36594;DHT22;22603;47.900;8.146;2022-12-24T03:50:35;6.90;99.90
36594;DHT22;22603;47.900;8.146;2022-12-24T03:53:22;6.80;99.90
36594;DHT22;22603;47.900;8.146;2022-12-24T03:56:11;6.80;99.90
36594;DHT22;22603;47.900;8.146;2022-12-24T03:58:58;6.80;99.90
36594;DHT22;22603;47.900;8.146;2022-12-24T04:01:45;6.80;99.90
36594;DHT22;22603;47.900;8.146;2022-12-24T04:04:33;6.80;99.90
36594;DHT22;22603;47.900;8.146;2022-12-24T04:07:21;6.80;99.90
36594;DHT22;22603;47.900;8.146;2022-12-24T04:10:08;6.80;99.90
36594;DHT22;22603;47.900;8.146;2022-12-24T04:12:57;6.80;99.90
36594;DHT22;22603;47.900;8.146;2022-12-24T04:15:45;6.90;99.90
36594;DHT22;22603;47.900;8.146;2022-12-24T04:18:42;6.90;99.90
36594;DHT22;22603;47.900;8.146;2022-12-24T04:21:29;6.90;99.90
36594;DHT22;22603;47.900;8.146;2022-12-24T04:24:16;6.90;99.90
36594;DHT22;22603;47.900;8.146;2022-12-24T04:27:05;7.00;99.90
36594;DHT22;22603;47.900;8.146;2022-12-24T04:29:54;7.10;99.90
36594;DHT22;22603;47.900;8.146;2022-12-24T04:32:41;7.10;99.90
36594;DHT22;22603;47.900;8.146;2022-12-24T04:35:28;7.10;99.90
36594;DHT22;22603;47.900;8.146;2022-12-24T04:38:15;7.10;99.90
36594;DHT22;22603;47.900;8.146;2022-12-24T04:41:04;7.10;99.90
36594;DHT22;22603;47.900;8.146;2022-12-24T04:43:53;7.10;99.90
36594;DHT22;22603;47.900;8.146;2022-12-24T04:46:41;7.10;99.90
36594;DHT22;22603;47.900;8.146;2022-12-24T04:49:28;7.20;99.90
36594;DHT22;22603;47.900;8.146;2022-12-24T04:52:15;7.10;99.90
36594;DHT22;22603;47.900;8.146;2022-12-24T04:55:03;7.10;99.90
36594;DHT22;22603;47.900;8.146;2022-12-24T04:57:50;7.20;99.90
36594;DHT22;22603;47.900;8.146;2022-12-24T05:00:37;7.20;99.90
36594;DHT22;22603;47.900;8.146;2022-12-24T05:03:26;7.20;99.90
36594;DHT22;22603;47.900;8.146;2022-12-24T05:06:16;7.10;99.90
36594;DHT22;22603;47.900;8.146;2022-12-24T05:09:03;7.10;99.90
36594;DHT22;22603;47.900;8.146;2022-12-24T05:11:50;7.10;99.90
36594;DHT22;22603;47.900;8.146;2022-12-24T05:14:38;7.10;99.90
36594;DHT22;22603;47.900;8.146;2022-12-24T05:17:25;7.10;99.90
36594;DHT22;22603;47.900;8.146;2022-12-24T05:20:14;7.10;99.90
36594;DHT22;22603;47.900;8.146;2022-12-24T05:23:01;7.10;99.90
36594;DHT22;22603;47.900;8.146;2022-12-24T05:26:26;7.00;99.90
36594;DHT22;22603;47.900;8.146;2022-12-24T05:29:15;7.00;99.90
36594;DHT22;22603;47.900;8.146;2022-12-24T05:32:02;7.00;99.90
36594;DHT22;22603;47.900;8.146;2022-12-24T05:34:49;6.90;99.90
36594;DHT22;22603;47.900;8.146;2022-12-24T05:37:37;6.80;99.90
36594;DHT22;22603;47.900;8.146;2022-12-24T05:40:24;6.90;99.90
36594;DHT22;22603;47.900;8.146;2022-12-24T05:43:12;6.90;99.90
36594;DHT22;22603;47.900;8.146;2022-12-24T05:45:59;6.90;99.90
36594;DHT22;22603;47.900;8.146;2022-12-24T05:48:50;6.90;99.90
36594;DHT22;22603;47.900;8.146;2022-12-24T05:51:38;6.90;99.90
36594;DHT22;22603;47.900;8.146;2022-12-24T05:54:28;6.80;99.90
36594;DHT22;22603;47.900;8.146;2022-12-24T05:57:15;6.80;99.90
36594;DHT22;22603;47.900;8.146;2022-12-24T06:00:04;6.90;99.90
36594;DHT22;22603;47.900;8.146;2022-12-24T06:02:51;6.80;99.90
36594;DHT22;22603;47.900;8.146;2022-12-24T06:05:39;6.80;99.90
36594;DHT22;22603;47.900;8.146;2022-12-24T06:08:26;6.70;99.90
36594;DHT22;22603;47.900;8.146;2022-12-24T06:11:17;6.70;99.90
36594;DHT22;22603;47.900;8.146;2022-12-24T06:14:05;6.70;99.90
36594;DHT22;22603;47.900;8.146;2022-12-24T06:16:53;6.60;99.90
36594;DHT22;22603;47.900;8.146;2022-12-24T06:19:40;6.70;99.90
36594;DHT22;22603;47.900;8.146;2022-12-24T06:22:27;6.70;99.90
36594;DHT22;22603;47.900;8.146;2022-12-24T06:25:15;6.70;99.90
36594;DHT22;22603;47.900;8.146;2022-12-24T06:28:05;6.70;99.90
36594;DHT22;22603;47.900;8.146;2022-12-24T06:30:53;6.70;99.90
36594;DHT22;22603;47.900;8.146;2022-12-24T06:33:48;6.60;99.90
36594;DHT22;22603;47.900;8.146;2022-12-24T06:36:35;6.60;99.90
36594;DHT22;22603;47.900;8.146;2022-12-24T06:39:22;6.60;99.90
36594;DHT22;22603;47.900;8.146;2022-12-24T06:42:10;6.60;99.90
36594;DHT22;22603;47.900;8.146;2022-12-24T06:44:59;6.60;99.90
36594;DHT22;22603;47.900;8.146;2022-12-24T06:47:52;6.60;99.90
36594;DHT22;22603;47.900;8.146;2022-12-24T06:50:40;6.60;99.90
36594;DHT22;22603;47.900;8.146;2022-12-24T06:53:27;6.60;99.90
36594;DHT22;22603;47.900;8.146;2022-12-24T06:56:14;6.60;99.90
36594;DHT22;22603;47.900;8.146;2022-12-24T06:59:01;6.70;99.90
36594;DHT22;22603;47.900;8.146;2022-12-24T07:01:51;6.80;99.90
36594;DHT22;22603;47.900;8.146;2022-12-24T07:04:38;6.70;99.90
36594;DHT22;22603;47.900;8.146;2022-12-24T07:07:26;6.70;99.90
36594;DHT22;22603;47.900;8.146;2022-12-24T07:10:16;6.70;99.90
36594;DHT22;22603;47.900;8.146;2022-12-24T07:13:03;6.80;99.90
36594;DHT22;22603;47.900;8.146;2022-12-24T07:15:56;6.80;99.90
36594;DHT22;22603;47.900;8.146;2022-12-24T07:18:45;6.90;99.90
36594;DHT22;22603;47.900;8.146;2022-12-24T07:21:32;6.90;99.90
36594;DHT22;22603;47.900;8.146;2022-12-24T07:24:20;6.90;99.90
36594;DHT22;22603;47.900;8.146;2022-12-24T07:27:09;6.90;99.90
36594;DHT22;22603;47.900;8.146;2022-12-24T07:29:59;6.80;99.90
36594;DHT22;22603;47.900;8.146;2022-12-24T07:32:46;6.80;99.90
36594;DHT22;22603;47.900;8.146;2022-12-24T07:35:34;6.80;99.90
36594;DHT22;22603;47.900;8.146;2022-12-24T07:38:21;6.80;99.90
36594;DHT22;22603;47.900;8.146;2022-12-24T07:41:08;6.80;99.90
36594;DHT22;22603;47.900;8.146;2022-12-24T07:43:56;6.80;99.90
36594;DHT22;22603;47.900;8.146;2022-12-24T07:46:43;6.80;99.90
36594;DHT22;22603;47.900;8.146;2022-12-24T07:49:30;6.80;99.90
36594;DHT22;22603;47.900;8.146;2022-12-24T07:52:19;6.80;99.90
36594;DHT22;22603;47.900;8.146;2022-12-24T07:55:07;6.80;99.90
36594;DHT22;22603;47.900;8.146;2022-12-24T07:57:54;6.80;99.90
36594;DHT22;22603;47.900;8.146;2022-12-24T08:00:41;7.00;99.90
36594;DHT22;22603;47.900;8.146;2022-12-24T08:03:29;7.10;99.90
36594;DHT22;22603;47.900;8.146;2022-12-24T08:06:16;7.00;99.90
36594;DHT22;22603;47.900;8.146;2022-12-24T08:09:05;7.00;99.90
36594;DHT22;22603;47.900;8.146;2022-12-24T08:11:53;7.00;99.90
36594;DHT22;22603;47.900;8.146;2022-12-24T08:14:40;7.00;99.90
36594;DHT22;22603;47.900;8.146;2022-12-24T08:17:27;7.00;99.90
36594;DHT22;22603;47.900;8.146;2022-12-24T08:20:17;7.10;99.90
36594;DHT22;22603;47.900;8.146;2022-12-24T08:23:04;7.00;99.90
36594;DHT22;22603;47.900;8.146;2022-12-24T08:25:52;6.90;99.90
36594;DHT22;22603;47.900;8.146;2022-12-24T08:28:41;7.00;99.90
36594;DHT22;22603;47.900;8.146;2022-12-24T08:31:28;7.00;99.90
36594;DHT22;22603;47.900;8.146;2022-12-24T08:34:15;7.00;99.90
36594;DHT22;22603;47.900;8.146;2022-12-24T08:37:03;7.00;99.90
36594;DHT22;22603;47.900;8.146;2022-12-24T08:39:50;7.00;99.90
36594;DHT22;22603;47.900;8.146;2022-12-24T08:42:39;7.10;99.90
36594;DHT22;22603;47.900;8.146;2022-12-24T08:45:26;7.00;99.90
36594;DHT22;22603;47.900;8.146;2022-12-24T08:48:19;7.10;99.90
36594;DHT22;22603;47.900;8.146;2022-12-24T08:51:07;7.20;99.90
36594;DHT22;22603;47.900;8.146;2022-12-24T08:53:55;7.20;99.90
36594;DHT22;22603;47.900;8.146;2022-12-24T08:56:42;7.10;99.90
36594;DHT22;22603;47.900;8.146;2022-12-24T08:59:30;7.20;99.90
36594;DHT22;22603;47.900;8.146;2022-12-24T09:02:18;7.20;99.90
36594;DHT22;22603;47.900;8.146;2022-12-24T09:05:06;7.20;99.90
36594;DHT22;22603;47.900;8.146;2022-12-24T09:07:54;7.20;99.90
36594;DHT22;22603;47.900;8.146;2022-12-24T09:10:41;7.20;99.90
36594;DHT22;22603;47.900;8.146;2022-12-24T09:13:28;7.20;99.90
36594;DHT22;22603;47.900;8.146;2022-12-24T09:16:17;7.20;99.90
36594;DHT22;22603;47.900;8.146;2022-12-24T09:19:04;7.30;99.90
36594;DHT22;22603;47.900;8.146;2022-12-24T09:21:51;7.30;99.90
36594;DHT22;22603;47.900;8.146;2022-12-24T09:24:39;7.20;99.90
36594;DHT22;22603;47.900;8.146;2022-12-24T09:27:26;7.30;99.90
36594;DHT22;22603;47.900;8.146;2022-12-24T09:30:14;7.30;99.90
36594;DHT22;22603;47.900;8.146;2022-12-24T09:33:02;7.30;99.90
36594;DHT22;22603;47.900;8.146;2022-12-24T09:35:50;7.40;99.90
36594;DHT22;22603;47.900;8.146;2022-12-24T09:38:44;7.50;99.90
36594;DHT22;22603;47.900;8.146;2022-12-24T09:41:57;7.50;99.90
36594;DHT22;22603;47.900;8.146;2022-12-24T09:44:50;7.50;99.90
36594;DHT22;22603;47.900;8.146;2022-12-24T09:47:43;7.50;99.90
36594;DHT22;22603;47.900;8.146;2022-12-24T09:50:38;7.60;99.90
36594;DHT22;22603;47.900;8.146;2022-12-24T09:53:36;7.50;99.90
36594;DHT22;22603;47.900;8.146;2022-12-24T09:56:29;7.60;99.90
36594;DHT22;22603;47.900;8.146;2022-12-24T09:59:19;7.60;99.90
36594;DHT22;22603;47.900;8.146;2022-12-24T10:02:10;7.60;99.90
36594;DHT22;22603;47.900;8.146;2022-12-24T10:04:58;7.70;99.90
36594;DHT22;22603;47.900;8.146;2022-12-24T10:07:52;7.70;99.90
36594;DHT22;22603;47.900;8.146;2022-12-24T10:10:50;7.80;99.90
36594;DHT22;22603;47.900;8.146;2022-12-24T10:13:45;7.90;99.90
36594;DHT22;22603;47.900;8.146;2022-12-24T10:16:44;7.90;99.90
36594;DHT22;22603;47.900;8.146;2022-12-24T10:19:42;7.90;99.90
36594;DHT22;22603;47.900;8.146;2022-12-24T10:22:42;7.90;99.90
36594;DHT22;22603;47.900;8.146;2022-12-24T10:25:39;8.00;99.90
36594;DHT22;22603;47.900;8.146;2022-12-24T10:28:31;8.10;99.90
36594;DHT22;22603;47.900;8.146;2022-12-24T10:31:19;8.20;99.90
36594;DHT22;22603;47.900;8.146;2022-12-24T10:34:14;8.20;99.90
36594;DHT22;22603;47.900;8.146;2022-12-24T10:37:01;8.30;99.90
36594;DHT22;22603;47.900;8.146;2022-12-24T10:39:49;8.30;99.90
36594;DHT22;22603;47.900;8.146;2022-12-24T10:42:40;8.30;99.90
36594;DHT22;22603;47.900;8.146;2022-12-24T10:45:40;8.30;99.90
36594;DHT22;22603;47.900;8.146;2022-12-24T10:48:31;8.30;99.90
36594;DHT22;22603;47.900;8.146;2022-12-24T10:51:27;8.20;99.90
36594;DHT22;22603;47.900;8.146;2022-12-24T10:54:17;8.20;99.90
36594;DHT22;22603;47.900;8.146;2022-12-24T10:57:23;8.20;99.90
36594;DHT22;22603;47.900;8.146;2022-12-24T11:00:20;8.20;99.90
36594;DHT22;22603;47.900;8.146;2022-12-24T11:03:23;8.20;99.90
36594;DHT22;22603;47.900;8.146;2022-12-24T11:06:15;8.20;99.90
36594;DHT22;22603;47.900;8.146;2022-12-24T11:09:20;8.20;99.90
36594;DHT22;22603;47.900;8.146;2022-12-24T11:12:18;8.30;99.90
36594;DHT22;22603;47.900;8.146;2022-12-24T11:15:15;8.30;99.90
36594;DHT22;22603;47.900;8.146;2022-12-24T11:18:12;8.20;99.90
36594;DHT22;22603;47.900;8.146;2022-12-24T11:21:00;8.20;99.90
36594;DHT22;22603;47.900;8.146;2022-12-24T11:23:50;8.20;99.90
36594;DHT22;22603;47.900;8.146;2022-12-24T11:26:41;8.20;99.90
36594;DHT22;22603;47.900;8.146;2022-12-24T11:29:28;8.20;99.90
36594;DHT22;22603;47.900;8.146;2022-12-24T11:32:21;8.30;99.90
36594;DHT22;22603;47.900;8.146;2022-12-24T11:35:15;8.40;99.90
36594;DHT22;22603;47.900;8.146;2022-12-24T11:38:10;8.40;99.90
36594;DHT22;22603;47.900;8.146;2022-12-24T11:41:00;8.50;99.90
36594;DHT22;22603;47.900;8.146;2022-12-24T11:43:50;8.50;99.90
36594;DHT22;22603;47.900;8.146;2022-12-24T11:46:39;8.60;99.90
36594;DHT22;22603;47.900;8.146;2022-12-24T11:49:29;8.70;99.90
36594;DHT22;22603;47.900;8.146;2022-12-24T11:52:23;8.80;99.90
36594;DHT22;22603;47.900;8.146;2022-12-24T11:55:18;8.80;99.90
36594;DHT22;22603;47.900;8.146;2022-12-24T11:58:17;8.90;99.90
36594;DHT22;22603;47.900;8.146;2022-12-24T12:01:13;9.00;99.90
36594;DHT22;22603;47.900;8.146;2022-12-24T12:04:04;9.00;99.90
36594;DHT22;22603;47.900;8.146;2022-12-24T12:06:55;8.90;99.90
36594;DHT22;22603;47.900;8.146;2022-12-24T12:09:48;8.80;99.90
36594;DHT22;22603;47.900;8.146;2022-12-24T12:12:45;8.90;99.90
36594;DHT22;22603;47.900;8.146;2022-12-24T12:15:38;9.00;99.90
36594;DHT22;22603;47.900;8.146;2022-12-24T12:18:29;8.80;99.90
36594;DHT22;22603;47.900;8.146;2022-12-24T12:21:20;8.80;99.90
36594;DHT22;22603;47.900;8.146;2022-12-24T12:24:15;9.00;99.90
36594;DHT22;22603;47.900;8.146;2022-12-24T12:27:14;9.00;99.90
36594;DHT22;22603;47.900;8.146;2022-12-24T12:30:05;9.00;99.90
36594;DHT22;22603;47.900;8.146;2022-12-24T12:32:57;9.10;99.90
36594;DHT22;22603;47.900;8.146;2022-12-24T12:35:46;9.00;99.90
36594;DHT22;22603;47.900;8.146;2022-12-24T12:38:35;9.10;99.90
36594;DHT22;22603;47.900;8.146;2022-12-24T12:41:29;9.00;99.90
36594;DHT22;22603;47.900;8.146;2022-12-24T12:44:37;9.00;99.90
36594;DHT22;22603;47.900;8.146;2022-12-24T12:47:42;9.10;99.90
36594;DHT22;22603;47.900;8.146;2022-12-24T12:50:33;9.00;99.90
36594;DHT22;22603;47.900;8.146;2022-12-24T12:53:39;9.00;99.90
36594;DHT22;22603;47.900;8.146;2022-12-24T12:56:32;8.90;99.90
36594;DHT22;22603;47.900;8.146;2022-12-24T12:59:26;8.90;99.90
36594;DHT22;22603;47.900;8.146;2022-12-24T13:02:31;8.90;99.90
36594;DHT22;22603;47.900;8.146;2022-12-24T13:05:39;8.90;99.90
36594;DHT22;22603;47.900;8.146;2022-12-24T13:08:44;8.90;99.90
36594;DHT22;22603;47.900;8.146;2022-12-24T13:11:49;8.90;99.90
36594;DHT22;22603;47.900;8.146;2022-12-24T13:14:52;8.80;99.90
36594;DHT22;22603;47.900;8.146;2022-12-24T13:17:57;8.80;99.90
36594;DHT22;22603;47.900;8.146;2022-12-24T13:20:52;8.70;99.90
36594;DHT22;22603;47.900;8.146;2022-12-24T13:23:40;8.70;99.90
36594;DHT22;22603;47.900;8.146;2022-12-24T13:26:27;8.70;99.90
36594;DHT22;22603;47.900;8.146;2022-12-24T13:29:38;8.70;99.90
36594;DHT22;22603;47.900;8.146;2022-12-24T13:32:48;8.70;99.90
36594;DHT22;22603;47.900;8.146;2022-12-24T13:35:55;8.70;99.90
36594;DHT22;22603;47.900;8.146;2022-12-24T13:38:45;8.50;99.90
36594;DHT22;22603;47.900;8.146;2022-12-24T13:41:42;8.50;99.90
36594;DHT22;22603;47.900;8.146;2022-12-24T13:44:34;8.40;99.90
36594;DHT22;22603;47.900;8.146;2022-12-24T13:47:22;8.40;99.90
36594;DHT22;22603;47.900;8.146;2022-12-24T13:50:23;8.40;99.90
36594;DHT22;22603;47.900;8.146;2022-12-24T13:53:21;8.40;99.90
36594;DHT22;22603;47.900;8.146;2022-12-24T13:56:21;8.30;99.90
36594;DHT22;22603;47.900;8.146;2022-12-24T13:59:23;8.30;99.90
36594;DHT22;22603;47.900;8.146;2022-12-24T14:02:19;8.30;99.90
36594;DHT22;22603;47.900;8.146;2022-12-24T14:05:17;8.30;99.90
36594;DHT22;22603;47.900;8.146;2022-12-24T14:08:09;8.30;99.90
36594;DHT22;22603;47.900;8.146;2022-12-24T14:11:04;8.20;99.90
36594;DHT22;22603;47.900;8.146;2022-12-24T14:14:11;8.20;99.90
36594;DHT22;22603;47.900;8.146;2022-12-24T14:17:19;8.20;99.90
36594;DHT22;22603;47.900;8.146;2022-12-24T14:20:08;8.20;99.90
36594;DHT22;22603;47.900;8.146;2022-12-24T14:22:56;8.20;99.90
36594;DHT22;22603;47.900;8.146;2022-12-24T14:25:45;8.20;99.90
36594;DHT22;22603;47.900;8.146;2022-12-24T14:28:37;8.20;99.90
36594;DHT22;22603;47.900;8.146;2022-12-24T14:31:25;8.10;99.90
36594;DHT22;22603;47.900;8.146;2022-12-24T14:34:13;8.10;99.90
36594;DHT22;22603;47.900;8.146;2022-12-24T14:37:02;8.20;99.90
36594;DHT22;22603;47.900;8.146;2022-12-24T14:39:50;8.10;99.90
36594;DHT22;22603;47.900;8.146;2022-12-24T14:42:49;8.10;99.90
36594;DHT22;22603;47.900;8.146;2022-12-24T14:45:44;8.10;99.90
36594;DHT22;22603;47.900;8.146;2022-12-24T14:48:38;8.10;99.90
36594;DHT22;22603;47.900;8.146;2022-12-24T14:51:32;8.00;99.90
36594;DHT22;22603;47.900;8.146;2022-12-24T14:54:38;7.90;99.90
36594;DHT22;22603;47.900;8.146;2022-12-24T14:57:26;7.80;99.90
36594;DHT22;22603;47.900;8.146;2022-12-24T15:00:20;7.80;99.90
36594;DHT22;22603;47.900;8.146;2022-12-24T15:03:12;7.70;99.90
36594;DHT22;22603;47.900;8.146;2022-12-24T15:06:02;7.70;99.90
36594;DHT22;22603;47.900;8.146;2022-12-24T15:08:50;7.70;99.90
36594;DHT22;22603;47.900;8.146;2022-12-24T15:11:38;7.70;99.90
36594;DHT22;22603;47.900;8.146;2022-12-24T15:14:26;7.60;99.90
36594;DHT22;22603;47.900;8.146;2022-12-24T15:17:16;7.60;99.90
36594;DHT22;22603;47.900;8.146;2022-12-24T15:20:04;7.60;99.90
36594;DHT22;22603;47.900;8.146;2022-12-24T15:22:55;7.50;99.90
36594;DHT22;22603;47.900;8.146;2022-12-24T15:25:43;7.50;99.90
36594;DHT22;22603;47.900;8.146;2022-12-24T15:28:35;7.50;99.90
36594;DHT22;22603;47.900;8.146;2022-12-24T15:31:25;7.50;99.90
36594;DHT22;22603;47.900;8.146;2022-12-24T15:34:25;7.40;99.90
36594;DHT22;22603;47.900;8.146;2022-12-24T15:37:16;7.40;99.90
36594;DHT22;22603;47.900;8.146;2022-12-24T15:40:07;7.30;99.90
36594;DHT22;22603;47.900;8.146;2022-12-24T15:42:58;7.20;99.90
36594;DHT22;22603;47.900;8.146;2022-12-24T15:45:46;7.10;99.90
36594;DHT22;22603;47.900;8.146;2022-12-24T15:48:34;7.00;99.90
36594;DHT22;22603;47.900;8.146;2022-12-24T15:51:27;7.00;99.90
36594;DHT22;22603;47.900;8.146;2022-12-24T15:54:19;7.00;99.90
36594;DHT22;22603;47.900;8.146;2022-12-24T15:57:19;6.90;99.90
36594;DHT22;22603;47.900;8.146;2022-12-24T16:00:20;7.00;99.90
36594;DHT22;22603;47.900;8.146;2022-12-24T16:03:10;7.00;99.90
36594;DHT22;22603;47.900;8.146;2022-12-24T16:05:58;7.00;99.90
36594;DHT22;22603;47.900;8.146;2022-12-24T16:08:47;7.00;99.90
36594;DHT22;22603;47.900;8.146;2022-12-24T16:11:36;7.00;99.90
36594;DHT22;22603;47.900;8.146;2022-12-24T16:14:23;7.00;99.90
36594;DHT22;22603;47.900;8.146;2022-12-24T16:17:18;6.90;99.90
36594;DHT22;22603;47.900;8.146;2022-12-24T16:20:15;6.90;99.90
36594;DHT22;22603;47.900;8.146;2022-12-24T16:23:04;6.90;99.90
36594;DHT22;22603;47.900;8.146;2022-12-24T16:25:53;6.90;99.90
36594;DHT22;22603;47.900;8.146;2022-12-24T16:28:40;6.90;99.90
36594;DHT22;22603;47.900;8.146;2022-12-24T16:31:29;6.80;99.90
36594;DHT22;22603;47.900;8.146;2022-12-24T16:34:19;6.80;99.90
36594;DHT22;22603;47.900;8.146;2022-12-24T16:37:09;6.80;99.90
36594;DHT22;22603;47.900;8.146;2022-12-24T16:39:56;6.70;99.90
36594;DHT22;22603;47.900;8.146;2022-12-24T16:42:44;6.70;99.90
36594;DHT22;22603;47.900;8.146;2022-12-24T16:45:49;6.70;99.90
36594;DHT22;22603;47.900;8.146;2022-12-24T16:48:37;6.70;99.90
36594;DHT22;22603;47.900;8.146;2022-12-24T16:51:25;6.70;99.90
36594;DHT22;22603;47.900;8.146;2022-12-24T16:54:12;6.70;99.90
36594;DHT22;22603;47.900;8.146;2022-12-24T16:57:00;6.70;99.90
36594;DHT22;22603;47.900;8.146;2022-12-24T16:59:50;6.60;99.90
36594;DHT22;22603;47.900;8.146;2022-12-24T17:02:38;6.60;99.90
36594;DHT22;22603;47.900;8.146;2022-12-24T17:05:26;6.60;99.90
36594;DHT22;22603;47.900;8.146;2022-12-24T17:08:13;6.60;99.90
36594;DHT22;22603;47.900;8.146;2022-12-24T17:11:00;6.60;99.90
36594;DHT22;22603;47.900;8.146;2022-12-24T17:13:47;6.60;99.90
36594;DHT22;22603;47.900;8.146;2022-12-24T17:16:36;6.60;99.90
36594;DHT22;22603;47.900;8.146;2022-12-24T17:19:23;6.60;99.90
36594;DHT22;22603;47.900;8.146;2022-12-24T17:22:10;6.60;99.90
36594;DHT22;22603;47.900;8.146;2022-12-24T17:24:57;6.60;99.90
36594;DHT22;22603;47.900;8.146;2022-12-24T17:27:43;6.50;99.90
36594;DHT22;22603;47.900;8.146;2022-12-24T17:30:30;6.50;99.90
36594;DHT22;22603;47.900;8.146;2022-12-24T17:33:19;6.50;99.90
36594;DHT22;22603;47.900;8.146;2022-12-24T17:36:07;6.60;99.90
36594;DHT22;22603;47.900;8.146;2022-12-24T17:38:54;6.50;99.90
36594;DHT22;22603;47.900;8.146;2022-12-24T17:41:41;6.50;99.90
36594;DHT22;22603;47.900;8.146;2022-12-24T17:44:28;6.60;99.90
36594;DHT22;22603;47.900;8.146;2022-12-24T17:47:15;6.60;99.90
36594;DHT22;22603;47.900;8.146;2022-12-24T17:50:05;6.50;99.90
36594;DHT22;22603;47.900;8.146;2022-12-24T17:52:53;6.50;99.90
36594;DHT22;22603;47.900;8.146;2022-12-24T17:55:40;6.50;99.90
36594;DHT22;22603;47.900;8.146;2022-12-24T17:58:28;6.50;99.90
36594;DHT22;22603;47.900;8.146;2022-12-24T18:01:17;6.40;99.90
36594;DHT22;22603;47.900;8.146;2022-12-24T18:04:05;6.40;99.90
36594;DHT22;22603;47.900;8.146;2022-12-24T18:06:53;6.40;99.90
36594;DHT22;22603;47.900;8.146;2022-12-24T18:09:47;6.50;99.90
36594;DHT22;22603;47.900;8.146;2022-12-24T18:12:34;6.40;99.90
36594;DHT22;22603;47.900;8.146;2022-12-24T18:15:22;6.50;99.90
36594;DHT22;22603;47.900;8.146;2022-12-24T18:18:09;6.50;99.90
36594;DHT22;22603;47.900;8.146;2022-12-24T18:20:56;6.50;99.90